Change the Weather History Date:

Saturday, April 5, 2014

  Actual Average Record
Temperature  
Mean Temperature 49 °F 48 °F  
Max Temperature 52 °F 54 °F 75 °F (2007)
Min Temperature 46 °F 41 °F 30 °F (1955)
Degree Days  
Heating Degree Days 16 17  
Month to date heating degree days 83 88  
Cooling Degree Days 0 0  
Month to date cooling degree days 0 0  
Year to date cooling degree days 0 0  
Moisture  
Dew Point 48 °F    
Average Humidity 92    
Maximum Humidity 100    
Minimum Humidity 83    
Precipitation  
Precipitation 0.26 in 0.19 in 1.40 in (2013)
Month to date precipitation 0.59 1.02  
Year to date precipitation 29.18 25.55  
Sea Level Pressure  
Sea Level Pressure 30.02 in    
Wind  
Wind Speed 10 mph (South)    
Max Wind Speed 25 mph    
Max Gust Speed 30 mph    
Visibility 4 miles    
Events Rain    
T = Trace of Precipitation, MM = Missing Value Source: NWS Daily Summary

Daily Weather History Graph

Daily Weather History Graph

Search for Another Location

Airport or City:

Trip Planner

Search our weather history database for the weather conditions in past years. The results will help you decide how hot, cold, wet, or windy it might be!

Date:

Astronomy

Apr. 05, 2014 Rise Set
Actual Time 6:46 AM PDT 7:50 PM PDT
Civil Twilight 6:15 AM PDT 8:21 PM PDT
Nautical Twilight 5:38 AM PDT 8:59 PM PDT
Astronomical Twilight 4:59 AM PDT 9:38 PM PDT
Moon 10:46 AM PDT (4/5) 1:18 AM PDT (4/5)
Length of Visible Light 14h 06m
Length of Day
13h 03m
Waxing Crescent, 35% of the Moon is Illuminated
Apr 5
Waxing Crescent
Apr 7
First Quarter
Apr 15
Full
Apr 22
Last Quarter
Apr 28
New

Hourly Weather History & Observations

Time (PDT) Temp. Windchill Dew Point Humidity Pressure Visibility Wind Dir Wind Speed Gust Speed Precip Events Conditions
12:00 AM 46.9 °F - 46.0 °F 97% 29.95 in 2.5 mi ENE 8.1 mph - 0.01 in Rain Light Rain
12:20 AM 46.9 °F - 46.0 °F 97% 29.95 in 4.0 mi East 9.2 mph - 0.01 in Rain Light Rain
12:53 AM 46.9 °F - 46.0 °F 97% 29.96 in 7.0 mi East 8.1 mph - 0.01 in   Overcast
1:53 AM 46.9 °F - 46.0 °F 97% 29.96 in 7.0 mi ENE 5.8 mph - N/A   Overcast
2:53 AM 46.9 °F - 46.0 °F 97% 29.96 in 6.0 mi ENE 6.9 mph - 0.00 in Rain Light Rain
3:53 AM 46.9 °F - 46.0 °F 97% 29.97 in 8.0 mi East 6.9 mph - 0.00 in   Overcast
4:40 AM 48.0 °F - 46.0 °F 93% 29.97 in 8.0 mi Calm Calm - N/A   Overcast
4:53 AM 48.0 °F - 46.0 °F 93% 29.98 in 8.0 mi Calm Calm - N/A   Overcast
5:53 AM 46.9 °F - 45.0 °F 93% 29.98 in 7.0 mi ENE 5.8 mph - N/A   Overcast
6:44 AM 46.9 °F - 46.0 °F 97% 29.97 in 4.0 mi ENE 5.8 mph - 0.00 in   Overcast
6:53 AM 46.9 °F - 46.0 °F 97% 29.99 in 4.0 mi ENE 4.6 mph - 0.00 in   Overcast
7:07 AM 46.9 °F - 46.0 °F 97% 29.98 in 2.0 mi ENE 4.6 mph - N/A   Overcast
7:19 AM 46.9 °F - 46.0 °F 97% 29.98 in 1.8 mi ENE 5.8 mph - N/A   Overcast
7:53 AM 46.9 °F - 46.0 °F 97% 29.99 in 1.0 mi ENE 6.9 mph - 0.00 in   Overcast
8:03 AM 46.9 °F - 46.9 °F 100% 29.98 in 0.8 mi ENE 6.9 mph - N/A   Overcast
8:11 AM 46.9 °F - 46.9 °F 100% 29.98 in 1.8 mi ENE 6.9 mph - 0.01 in   Overcast
8:35 AM 48.0 °F - 46.9 °F 96% 29.99 in 3.0 mi ENE 4.6 mph - 0.01 in   Overcast
8:46 AM 48.0 °F - 46.9 °F 96% 29.99 in 1.8 mi ENE 4.6 mph - 0.01 in Rain Light Rain
8:53 AM 48.0 °F - 46.9 °F 96% 30.01 in 1.8 mi East 6.9 mph - 0.01 in Rain Light Rain
9:01 AM 48.0 °F - 46.9 °F 96% 29.99 in 3.0 mi ENE 6.9 mph - 0.00 in   Overcast
9:48 AM 50.0 °F - 50.0 °F 100% 30.00 in 6.0 mi SSE 3.5 mph - 0.00 in   Overcast
9:53 AM 51.1 °F - 51.1 °F 100% 30.02 in 6.0 mi South 4.6 mph - 0.00 in   Overcast
9:58 AM 51.1 °F - 50.0 °F 96% 30.01 in 6.0 mi SSW 8.1 mph - N/A   Overcast
10:53 AM 52.0 °F - 48.9 °F 89% 30.04 in 5.0 mi South 9.2 mph - N/A   Overcast
11:29 AM 52.0 °F - 48.0 °F 86% 30.02 in 5.0 mi South 11.5 mph - N/A   Overcast
11:53 AM 52.0 °F - 46.9 °F 83% 30.04 in 5.0 mi South 11.5 mph - N/A   Haze
12:32 PM 52.0 °F - 48.0 °F 86% 30.02 in 4.0 mi South 13.8 mph - N/A   Overcast
12:46 PM 52.0 °F - 48.0 °F 86% 30.02 in 2.5 mi South 15.0 mph - 0.00 in Rain Light Rain
12:53 PM 51.1 °F - 48.9 °F 92% 30.03 in 1.8 mi South 11.5 mph - 0.00 in Rain Light Rain
1:00 PM 51.1 °F - 48.9 °F 92% 30.01 in 2.5 mi South 12.7 mph - 0.00 in Rain Light Rain
1:17 PM 52.0 °F - 48.9 °F 89% 30.01 in 3.0 mi South 16.1 mph - 0.00 in   Overcast
1:34 PM 51.1 °F - 48.9 °F 92% 30.01 in 2.5 mi South 17.3 mph - 0.00 in Rain Light Rain
1:41 PM 51.1 °F - 48.9 °F 92% 30.01 in 2.0 mi South 16.1 mph - 0.00 in Rain Light Rain
1:50 PM 51.8 °F - 48.2 °F 88% 30.01 in 1.5 mi South 16.1 mph - 0.00 in Rain Light Rain
1:53 PM 51.1 °F - 48.9 °F 92% 30.02 in 1.5 mi South 15.0 mph - 0.00 in Rain Light Rain
2:07 PM 51.1 °F - 48.9 °F 92% 30.00 in 1.2 mi South 16.1 mph - 0.00 in Rain Rain
2:14 PM 51.1 °F - 48.9 °F 92% 30.00 in 1.5 mi SSE 17.3 mph - N/A Rain Light Rain
2:32 PM 51.1 °F - 48.9 °F 92% 29.99 in 2.0 mi South 18.4 mph - N/A Rain Light Rain
2:37 PM 50.0 °F - 48.9 °F 96% 29.99 in 3.0 mi South 19.6 mph 24.2 mph N/A Rain Light Rain
2:45 PM 50.0 °F - 48.9 °F 96% 30.00 in 4.0 mi South 21.9 mph 28.8 mph N/A Rain Light Rain
2:53 PM 50.0 °F - 48.9 °F 96% 30.01 in 4.0 mi South 25.3 mph 29.9 mph N/A Rain Light Rain
3:03 PM 50.0 °F - 50.0 °F 100% 30.00 in 2.5 mi South 23.0 mph - 0.00 in Rain Light Rain
3:25 PM 51.1 °F - 50.0 °F 96% 30.00 in 1.2 mi South 20.7 mph - 0.00 in   Overcast
3:53 PM 51.1 °F - 50.0 °F 96% 30.01 in 1.5 mi SSW 24.2 mph - 0.01 in Rain Light Rain
4:04 PM 51.1 °F - 50.0 °F 96% 30.00 in 2.5 mi SSW 17.3 mph 28.8 mph 0.01 in Rain Light Rain
4:17 PM 51.1 °F - 50.0 °F 96% 30.01 in 5.0 mi SW 18.4 mph - 0.01 in Rain Light Rain
4:53 PM 50.0 °F - 50.0 °F 100% 30.03 in 2.0 mi SW 20.7 mph - 0.02 in Rain Light Rain
5:18 PM 50.0 °F - 50.0 °F 100% 30.03 in 1.2 mi SW 16.1 mph - 0.02 in Rain Light Rain
5:26 PM 50.0 °F - 50.0 °F 100% 30.03 in 1.5 mi SW 17.3 mph - 0.02 in Rain Light Rain
5:34 PM 50.0 °F - 50.0 °F 100% 30.03 in 3.0 mi SW 15.0 mph - 0.02 in Rain Light Rain
5:49 PM 50.0 °F - 48.2 °F 94% 30.03 in 3.0 mi WSW 19.6 mph - 0.03 in Rain Light Rain
5:53 PM 50.0 °F - 48.9 °F 96% 30.04 in 4.0 mi WSW 18.4 mph - 0.03 in Rain Light Rain
6:17 PM 50.0 °F - 48.9 °F 96% 30.03 in 2.5 mi SW 17.3 mph - 0.02 in Rain Light Rain
6:24 PM 50.0 °F - 48.9 °F 96% 30.03 in 2.5 mi SW 18.4 mph - 0.02 in Rain Light Rain
6:31 PM 50.0 °F - 48.9 °F 96% 30.04 in 3.0 mi SW 17.3 mph - 0.03 in Rain Light Rain
6:50 PM 50.0 °F - 48.2 °F 94% 30.04 in 1.8 mi SW 17.3 mph - 0.04 in Rain Light Rain
6:51 PM 50.0 °F - 48.9 °F 96% 30.05 in 1.8 mi SW 17.3 mph - 0.04 in Rain Light Rain
7:11 PM 48.9 °F - 48.9 °F 100% 30.04 in 1.5 mi WSW 12.7 mph - 0.01 in Rain Light Rain
7:14 PM 48.9 °F - 48.9 °F 100% 30.04 in 2.0 mi WSW 13.8 mph - 0.01 in Rain Light Rain
7:23 PM 48.9 °F - 48.9 °F 100% 30.04 in 3.0 mi West 12.7 mph - 0.02 in Rain Light Rain
7:45 PM 48.9 °F - 48.0 °F 97% 30.05 in 4.0 mi West 10.4 mph - 0.03 in Rain Light Rain
7:53 PM 48.9 °F - 48.0 °F 97% 30.06 in 6.0 mi West 9.2 mph - 0.04 in Rain Light Rain
8:53 PM 46.9 °F - 46.0 °F 97% 30.09 in 6.0 mi NW 10.4 mph - 0.04 in Rain Light Rain
9:53 PM 46.9 °F - 45.0 °F 93% 30.12 in 8.0 mi West 4.6 mph - 0.04 in   Overcast
10:53 PM 46.9 °F - 45.0 °F 93% 30.14 in 5.0 mi SW 3.5 mph - 0.02 in   Overcast
11:14 PM 46.9 °F - 45.0 °F 93% 30.13 in 4.0 mi SW 5.8 mph - N/A   Overcast
11:34 PM 46.9 °F - 45.0 °F 93% 30.13 in 3.0 mi SW 4.6 mph - N/A   Overcast
11:48 PM 46.4 °F 44.3 °F 46.4 °F 100% 30.14 in 2.5 mi SW 4.6 mph - N/A   Overcast
11:53 PM 46.9 °F - 46.0 °F 97% 30.15 in 2.5 mi SSW 4.6 mph - N/A   Overcast